createdAt,value
2023-02-23T00:00:44.319Z,0.00
2023-02-23T00:01:30.253Z,0.00
2023-02-23T00:02:16.202Z,0.00
2023-02-23T00:03:02.356Z,0.00
2023-02-23T00:03:48.185Z,0.00
2023-02-23T00:04:34.178Z,0.00
2023-02-23T00:05:20.251Z,0.00
2023-02-23T00:06:06.181Z,0.00
2023-02-23T00:06:52.397Z,0.00
2023-02-23T00:07:38.196Z,0.00
2023-02-23T00:08:24.253Z,0.00
2023-02-23T00:09:10.518Z,0.00
2023-02-23T00:09:56.285Z,0.00
2023-02-23T00:10:42.327Z,0.00
2023-02-23T00:11:28.304Z,0.00
2023-02-23T00:12:14.251Z,0.00
2023-02-23T00:13:00.290Z,0.00
2023-02-23T00:13:46.272Z,0.00
2023-02-23T00:14:32.338Z,0.00
2023-02-23T00:15:18.510Z,0.00
2023-02-23T00:16:04.376Z,0.00
2023-02-23T00:16:50.396Z,0.00
2023-02-23T00:17:36.412Z,0.00
2023-02-23T00:18:22.333Z,0.00
2023-02-23T00:19:08.470Z,0.00
2023-02-23T00:19:54.345Z,0.00
2023-02-23T00:20:40.749Z,0.00
2023-02-23T00:21:26.482Z,0.00
2023-02-23T00:22:12.392Z,0.00
2023-02-23T00:22:58.443Z,0.00
2023-02-23T00:23:44.332Z,0.00
2023-02-23T00:24:30.376Z,0.00
2023-02-23T00:25:16.265Z,0.00
2023-02-23T00:26:02.333Z,0.00
2023-02-23T00:26:48.363Z,0.00
2023-02-23T00:27:34.417Z,0.00
2023-02-23T00:28:20.342Z,0.00
2023-02-23T00:29:06.341Z,0.00
2023-02-23T00:29:52.371Z,0.00
2023-02-23T00:30:38.446Z,0.00
2023-02-23T00:31:24.341Z,0.00
2023-02-23T00:32:10.759Z,0.00
2023-02-23T00:32:55.591Z,0.00
2023-02-23T00:33:42.354Z,0.00
2023-02-23T00:34:28.378Z,0.00
2023-02-23T00:35:14.396Z,0.00
2023-02-23T00:36:00.503Z,0.00
2023-02-23T00:36:46.432Z,0.00
2023-02-23T00:37:32.399Z,0.00
2023-02-23T00:38:18.405Z,0.00
2023-02-23T00:39:04.318Z,0.00
2023-02-23T00:39:50.414Z,0.00
2023-02-23T00:40:36.436Z,0.00
2023-02-23T00:41:22.434Z,0.00
2023-02-23T00:42:08.503Z,0.00
2023-02-23T00:42:54.409Z,0.00
2023-02-23T00:43:40.682Z,0.00
2023-02-23T00:44:26.407Z,0.00
2023-02-23T00:45:12.467Z,0.00
2023-02-23T00:45:58.553Z,0.00
2023-02-23T00:46:44.441Z,0.00
2023-02-23T00:47:30.408Z,0.00
2023-02-23T00:48:16.366Z,0.00
2023-02-23T00:49:02.458Z,0.00
2023-02-23T00:49:48.462Z,0.00
2023-02-23T00:50:34.385Z,0.00
2023-02-23T00:51:20.685Z,0.00
2023-02-23T00:52:06.493Z,0.00
2023-02-23T00:52:52.412Z,0.00
2023-02-23T00:53:38.389Z,0.00
2023-02-23T00:54:24.449Z,0.00
2023-02-23T00:55:10.737Z,0.00
2023-02-23T00:55:56.541Z,0.00
2023-02-23T00:56:42.385Z,0.00
2023-02-23T00:57:28.571Z,0.00
2023-02-23T00:58:14.515Z,0.00
2023-02-23T00:59:00.473Z,0.00
2023-02-23T00:59:46.457Z,0.00
2023-02-23T01:00:32.576Z,0.00
2023-02-23T01:01:18.884Z,0.00
2023-02-23T01:02:04.525Z,0.00
2023-02-23T01:02:50.532Z,0.00
2023-02-23T01:03:36.511Z,0.00
2023-02-23T01:04:22.500Z,0.00
2023-02-23T01:05:08.441Z,0.00
2023-02-23T01:05:54.506Z,0.00
2023-02-23T01:06:40.743Z,0.00
2023-02-23T01:07:26.590Z,0.00
2023-02-23T01:08:12.422Z,0.00
2023-02-23T01:08:58.560Z,0.00
2023-02-23T01:09:44.650Z,0.00
2023-02-23T01:10:30.660Z,0.00
2023-02-23T01:11:17.382Z,0.00
2023-02-23T01:12:02.690Z,0.00
2023-02-23T01:12:48.512Z,0.00
2023-02-23T01:13:34.585Z,0.00
2023-02-23T01:14:20.614Z,0.00
2023-02-23T01:15:06.678Z,0.00
2023-02-23T01:15:52.662Z,0.00
2023-02-23T01:16:38.686Z,0.00
2023-02-23T01:17:24.629Z,0.00
2023-02-23T01:18:10.893Z,0.00
2023-02-23T01:18:56.909Z,0.00
2023-02-23T01:19:42.698Z,0.00
2023-02-23T01:20:28.684Z,0.00
2023-02-23T01:21:14.615Z,0.00
2023-02-23T01:22:01.026Z,0.00
2023-02-23T01:22:46.679Z,0.00
2023-02-23T01:23:32.662Z,0.00
2023-02-23T01:24:18.750Z,0.00
2023-02-23T01:25:04.746Z,0.00
2023-02-23T01:25:50.676Z,0.00
2023-02-23T01:26:36.707Z,0.00
2023-02-23T01:27:22.775Z,0.00
2023-02-23T01:28:08.639Z,0.00
2023-02-23T01:28:54.710Z,0.00
2023-02-23T01:29:40.974Z,0.00
2023-02-23T01:30:26.857Z,0.00
2023-02-23T01:31:12.985Z,0.00
2023-02-23T01:31:58.910Z,0.00
2023-02-23T01:32:44.754Z,0.00
2023-02-23T01:33:30.690Z,0.00
2023-02-23T01:34:16.678Z,0.00
2023-02-23T01:35:02.712Z,0.00
2023-02-23T01:35:48.723Z,0.00
2023-02-23T01:36:34.785Z,0.00
2023-02-23T01:37:20.808Z,0.00
2023-02-23T01:38:06.716Z,0.00
2023-02-23T01:38:52.672Z,0.00
2023-02-23T01:39:38.725Z,0.00
2023-02-23T01:40:24.865Z,0.00
2023-02-23T01:41:10.949Z,0.00
2023-02-23T01:41:56.725Z,0.00
2023-02-23T01:42:42.857Z,0.00
2023-02-23T01:43:28.857Z,0.00
2023-02-23T01:44:14.706Z,0.00
2023-02-23T01:45:00.962Z,0.00
2023-02-23T01:45:46.733Z,0.00
2023-02-23T01:46:33.049Z,0.00
2023-02-23T01:47:18.792Z,0.00
2023-02-23T01:48:04.791Z,0.00
2023-02-23T01:48:50.868Z,0.00
2023-02-23T01:49:36.847Z,0.00
2023-02-23T01:50:22.734Z,0.00
2023-02-23T01:51:08.771Z,0.00
2023-02-23T01:51:55.005Z,0.00
2023-02-23T01:52:40.975Z,0.00
2023-02-23T01:53:26.968Z,0.00
2023-02-23T01:54:12.787Z,0.00
2023-02-23T01:54:58.813Z,0.00
2023-02-23T01:55:44.751Z,0.00
2023-02-23T01:56:30.929Z,0.00
2023-02-23T01:57:16.842Z,0.00
2023-02-23T01:58:02.836Z,0.00
2023-02-23T01:58:48.932Z,0.00
2023-02-23T01:59:34.762Z,0.00
2023-02-23T02:00:20.776Z,0.00
2023-02-23T02:01:06.774Z,0.00
2023-02-23T02:01:52.882Z,0.00
2023-02-23T02:02:38.716Z,0.00
2023-02-23T02:03:24.877Z,0.00
2023-02-23T02:04:11.122Z,0.00
2023-02-23T02:04:56.944Z,0.00
2023-02-23T02:05:42.851Z,0.00
2023-02-23T02:06:28.882Z,0.00
2023-02-23T02:07:14.875Z,0.00
2023-02-23T02:08:00.965Z,0.00
2023-02-23T02:08:46.823Z,0.00
2023-02-23T02:09:32.939Z,0.00
2023-02-23T02:10:18.912Z,0.00
2023-02-23T02:11:04.886Z,0.00
2023-02-23T02:11:50.724Z,0.00
2023-02-23T02:12:36.806Z,0.00
2023-02-23T02:13:22.868Z,0.00
2023-02-23T02:14:09.015Z,0.00
2023-02-23T02:14:54.946Z,0.00
2023-02-23T02:15:41.316Z,0.00
2023-02-23T02:16:27.035Z,0.00
2023-02-23T02:17:12.904Z,0.00
2023-02-23T02:17:58.869Z,0.00
2023-02-23T02:18:45.010Z,0.00
2023-02-23T02:19:30.947Z,0.00
2023-02-23T02:20:16.902Z,0.00
2023-02-23T02:21:03.053Z,0.00
2023-02-23T02:21:48.921Z,0.00
2023-02-23T02:22:34.892Z,0.00
2023-02-23T02:23:20.835Z,0.00
2023-02-23T02:24:06.971Z,0.00
2023-02-23T02:24:53.039Z,0.00
2023-02-23T02:25:38.930Z,0.00
2023-02-23T02:26:24.960Z,0.00
2023-02-23T02:27:11.117Z,0.00
2023-02-23T02:27:56.920Z,0.00
2023-02-23T02:28:42.924Z,0.00
2023-02-23T02:29:29.127Z,0.00
2023-02-23T02:30:15.077Z,0.00
2023-02-23T02:31:01.091Z,0.00
2023-02-23T02:31:47.142Z,0.00
2023-02-23T02:32:32.996Z,0.00
2023-02-23T02:33:19.010Z,0.00
2023-02-23T02:34:04.990Z,0.00
2023-02-23T02:34:50.997Z,0.00
2023-02-23T02:35:36.991Z,0.00
2023-02-23T02:36:23.002Z,0.00
2023-02-23T02:37:09.007Z,0.00
2023-02-23T02:37:55.032Z,0.00
2023-02-23T02:38:41.256Z,0.00
2023-02-23T02:39:27.038Z,0.00
2023-02-23T02:40:13.054Z,0.00
2023-02-23T02:40:58.943Z,0.00
2023-02-23T02:41:44.980Z,0.00
2023-02-23T02:42:30.934Z,0.00
2023-02-23T02:43:17.048Z,0.00
2023-02-23T02:44:03.060Z,0.00
2023-02-23T02:44:49.101Z,0.00
2023-02-23T02:45:35.130Z,0.00
2023-02-23T02:46:21.080Z,0.00
2023-02-23T02:47:07.089Z,0.00
2023-02-23T02:47:52.993Z,0.00
2023-02-23T02:48:39.090Z,0.00
2023-02-23T02:49:25.086Z,0.00
2023-02-23T02:50:10.183Z,0.00
2023-02-23T02:50:57.143Z,0.00
2023-02-23T02:51:43.127Z,0.00
2023-02-23T02:52:29.103Z,0.00
2023-02-23T02:53:14.942Z,0.00
2023-02-23T02:54:00.992Z,0.00
2023-02-23T02:54:46.997Z,0.00
2023-02-23T02:55:33.323Z,0.00
2023-02-23T02:56:19.122Z,0.00
2023-02-23T02:57:05.099Z,0.00
2023-02-23T02:57:51.135Z,0.00
2023-02-23T02:58:37.110Z,0.00
2023-02-23T02:59:23.132Z,0.00
2023-02-23T03:00:09.281Z,0.00
2023-02-23T03:00:55.106Z,0.00
2023-02-23T03:01:41.379Z,0.00
2023-02-23T03:02:27.022Z,0.00
2023-02-23T03:03:13.083Z,0.00
2023-02-23T03:03:59.173Z,0.00
2023-02-23T03:04:45.116Z,0.00
2023-02-23T03:05:31.110Z,0.00
2023-02-23T03:06:17.062Z,0.00
2023-02-23T03:07:03.104Z,0.00
2023-02-23T03:07:49.130Z,0.00
2023-02-23T03:08:35.055Z,0.00
2023-02-23T03:09:21.127Z,0.00
2023-02-23T03:10:07.173Z,0.00
2023-02-23T03:10:53.176Z,0.00
2023-02-23T03:11:39.119Z,0.00
2023-02-23T03:12:25.104Z,0.00
2023-02-23T03:13:11.394Z,0.00
2023-02-23T03:13:57.158Z,0.00
2023-02-23T03:14:43.230Z,0.00
2023-02-23T03:15:29.431Z,0.00
2023-02-23T03:16:15.145Z,0.00
2023-02-23T03:17:01.183Z,0.00
2023-02-23T03:17:47.251Z,0.00
2023-02-23T03:18:33.271Z,0.00
2023-02-23T03:19:19.417Z,0.00
2023-02-23T03:20:05.258Z,0.00
2023-02-23T03:20:51.441Z,0.00
2023-02-23T03:21:37.317Z,0.00
2023-02-23T03:22:23.198Z,0.00
2023-02-23T03:23:09.250Z,0.00
2023-02-23T03:23:55.244Z,0.00
2023-02-23T03:24:42.301Z,0.00
2023-02-23T03:25:27.238Z,0.00
2023-02-23T03:26:13.291Z,0.00
2023-02-23T03:26:59.201Z,0.00
2023-02-23T03:27:45.186Z,0.00
2023-02-23T03:28:31.379Z,0.00
2023-02-23T03:29:17.213Z,0.00
2023-02-23T03:30:03.241Z,0.00
2023-02-23T03:30:49.443Z,0.00
2023-02-23T03:31:35.337Z,0.00
2023-02-23T03:32:21.394Z,0.00
2023-02-23T03:33:07.231Z,0.00
2023-02-23T03:33:53.146Z,0.00
2023-02-23T03:34:39.207Z,0.00
2023-02-23T03:35:25.185Z,0.00
2023-02-23T03:36:11.226Z,0.00
2023-02-23T03:36:57.186Z,0.00
2023-02-23T03:37:43.235Z,0.00
2023-02-23T03:38:29.216Z,0.00
2023-02-23T03:39:15.360Z,0.00
2023-02-23T03:40:01.288Z,0.00
2023-02-23T03:40:47.460Z,0.00
2023-02-23T03:41:33.397Z,0.00
2023-02-23T03:42:19.245Z,0.00
2023-02-23T03:43:05.317Z,0.00
2023-02-23T03:43:51.289Z,0.00
2023-02-23T03:44:37.284Z,0.00
2023-02-23T03:45:23.454Z,0.00
2023-02-23T03:46:09.270Z,0.00
2023-02-23T03:46:55.418Z,0.00
2023-02-23T03:47:41.310Z,0.00
2023-02-23T03:48:27.248Z,0.00
2023-02-23T03:49:13.231Z,0.00
2023-02-23T03:49:59.231Z,0.00
2023-02-23T03:50:45.388Z,0.00
2023-02-23T03:51:31.321Z,0.00
2023-02-23T03:52:17.254Z,0.00
2023-02-23T03:53:03.143Z,0.00
2023-02-23T03:53:49.228Z,0.00
2023-02-23T03:54:35.270Z,0.00
2023-02-23T03:55:21.279Z,0.00
2023-02-23T03:56:07.247Z,0.00
2023-02-23T03:56:53.205Z,0.00
2023-02-23T03:57:39.234Z,0.00
2023-02-23T03:58:25.264Z,0.00
2023-02-23T03:59:11.275Z,0.00
2023-02-23T03:59:57.263Z,0.00
2023-02-23T04:00:43.355Z,0.00
2023-02-23T04:01:29.506Z,0.00
2023-02-23T04:02:15.372Z,0.00
2023-02-23T04:03:01.681Z,0.00
2023-02-23T04:03:47.322Z,0.00
2023-02-23T04:04:33.292Z,0.00
2023-02-23T04:05:19.326Z,0.00
2023-02-23T04:06:05.181Z,0.00
2023-02-23T04:06:51.299Z,0.00
2023-02-23T04:07:37.258Z,0.00
2023-02-23T04:08:23.212Z,0.00
2023-02-23T04:09:09.319Z,0.00
2023-02-23T04:09:55.259Z,0.00
2023-02-23T04:10:41.296Z,0.00
2023-02-23T04:11:27.373Z,0.00
2023-02-23T04:12:13.326Z,0.00
2023-02-23T04:12:59.220Z,0.00
2023-02-23T04:13:45.258Z,0.00
2023-02-23T04:14:31.314Z,0.00
2023-02-23T04:15:17.389Z,0.00
2023-02-23T04:16:03.361Z,0.00
2023-02-23T04:16:49.349Z,0.00
2023-02-23T04:17:35.264Z,0.00
2023-02-23T04:18:21.336Z,0.00
2023-02-23T04:19:07.317Z,0.00
2023-02-23T04:19:53.303Z,0.00
2023-02-23T04:20:39.398Z,0.00
2023-02-23T04:21:25.458Z,0.00
2023-02-23T04:22:11.396Z,0.00
2023-02-23T04:22:57.391Z,0.00
2023-02-23T04:23:43.413Z,0.00
2023-02-23T04:24:29.336Z,0.00
2023-02-23T04:25:17.260Z,0.00
2023-02-23T04:26:01.385Z,0.00
2023-02-23T04:26:47.429Z,0.00
2023-02-23T04:27:33.352Z,0.00
2023-02-23T04:28:19.417Z,0.00
2023-02-23T04:29:05.508Z,0.00
2023-02-23T04:29:51.473Z,0.00
2023-02-23T04:30:37.580Z,0.00
2023-02-23T04:31:24.814Z,0.00
2023-02-23T04:32:09.553Z,0.00
2023-02-23T04:32:55.629Z,0.00
2023-02-23T04:33:41.413Z,0.00
2023-02-23T04:34:27.436Z,0.00
2023-02-23T04:35:13.452Z,0.00
2023-02-23T04:35:59.444Z,0.00
2023-02-23T04:36:45.391Z,0.00
2023-02-23T04:37:31.389Z,0.00
2023-02-23T04:38:17.442Z,0.00
2023-02-23T04:39:03.381Z,0.00
2023-02-23T04:39:49.425Z,0.00
2023-02-23T04:40:35.482Z,0.00
2023-02-23T04:41:21.438Z,0.00
2023-02-23T04:42:07.486Z,0.00
2023-02-23T04:42:53.458Z,0.00
2023-02-23T04:43:39.557Z,0.00
2023-02-23T04:44:25.511Z,0.00
2023-02-23T04:45:11.574Z,0.00
2023-02-23T04:45:57.465Z,0.00
2023-02-23T04:46:43.486Z,0.00
2023-02-23T04:47:29.498Z,0.00
2023-02-23T04:48:15.400Z,0.00
2023-02-23T04:49:01.451Z,0.00
2023-02-23T04:49:47.605Z,0.00
2023-02-23T04:50:33.471Z,0.00
2023-02-23T04:51:19.828Z,0.00
2023-02-23T04:52:05.546Z,0.00
2023-02-23T04:52:51.537Z,0.00
2023-02-23T04:53:37.508Z,0.00
2023-02-23T04:54:23.509Z,0.00
2023-02-23T04:55:09.541Z,0.00
2023-02-23T04:55:55.527Z,0.00
2023-02-23T04:56:41.797Z,0.00
2023-02-23T04:57:27.530Z,0.00
2023-02-23T04:58:13.544Z,0.00
2023-02-23T04:58:59.525Z,0.00
2023-02-23T04:59:45.544Z,0.00
2023-02-23T05:00:31.604Z,0.00
2023-02-23T05:01:17.953Z,0.00
2023-02-23T05:02:03.446Z,0.00
2023-02-23T05:02:50.662Z,0.00
2023-02-23T05:03:35.582Z,0.00
2023-02-23T05:04:21.484Z,0.00
2023-02-23T05:05:07.650Z,0.00
2023-02-23T05:05:53.533Z,0.00
2023-02-23T05:06:39.546Z,0.00
2023-02-23T05:07:25.586Z,0.00
2023-02-23T05:08:11.576Z,0.00
2023-02-23T05:08:57.584Z,0.00
2023-02-23T05:09:43.619Z,0.00
2023-02-23T05:10:29.651Z,0.00
2023-02-23T05:11:15.591Z,0.00
2023-02-23T05:12:01.528Z,0.00
2023-02-23T05:12:47.644Z,0.00
2023-02-23T05:13:33.535Z,0.00
2023-02-23T05:14:19.555Z,0.00
2023-02-23T05:15:05.667Z,0.00
2023-02-23T05:15:51.595Z,0.00
2023-02-23T05:16:37.632Z,0.00
2023-02-23T05:17:23.580Z,0.00
2023-02-23T05:18:09.618Z,0.00
2023-02-23T05:18:55.602Z,0.00
2023-02-23T05:19:42.109Z,0.00
2023-02-23T05:20:27.646Z,0.00
2023-02-23T05:21:13.614Z,0.00
2023-02-23T05:21:59.618Z,0.00
2023-02-23T05:22:45.552Z,0.00
2023-02-23T05:23:31.593Z,0.00
2023-02-23T05:24:17.624Z,0.00
2023-02-23T05:25:03.596Z,0.00
2023-02-23T05:25:49.628Z,0.00
2023-02-23T05:26:35.645Z,0.00
2023-02-23T05:27:21.637Z,0.00
2023-02-23T05:28:07.571Z,0.00
2023-02-23T05:28:53.640Z,0.00
2023-02-23T05:29:39.743Z,0.00
2023-02-23T05:30:25.816Z,0.00
2023-02-23T05:31:11.708Z,0.00
2023-02-23T05:31:57.752Z,0.00
2023-02-23T05:32:43.672Z,0.00
2023-02-23T05:33:29.680Z,0.00
2023-02-23T05:34:15.692Z,0.00
2023-02-23T05:35:01.643Z,0.00
2023-02-23T05:35:47.675Z,0.00
2023-02-23T05:36:33.656Z,0.00
2023-02-23T05:37:19.684Z,0.00
2023-02-23T05:38:05.641Z,0.00
2023-02-23T05:38:51.692Z,0.00
2023-02-23T05:39:37.701Z,0.00
2023-02-23T05:40:23.685Z,0.00
2023-02-23T05:41:09.739Z,0.00
2023-02-23T05:41:55.791Z,0.00
2023-02-23T05:42:42.425Z,0.00
2023-02-23T05:43:27.748Z,0.00
2023-02-23T05:44:13.718Z,0.00
2023-02-23T05:44:59.687Z,0.00
2023-02-23T05:45:45.717Z,0.00
2023-02-23T05:46:31.756Z,0.00
2023-02-23T05:47:17.696Z,0.00
2023-02-23T05:48:03.693Z,0.00
2023-02-23T05:48:49.862Z,0.00
2023-02-23T05:49:35.802Z,0.00
2023-02-23T05:50:21.759Z,0.00
2023-02-23T05:51:07.672Z,0.00
2023-02-23T05:51:53.730Z,0.00
2023-02-23T05:52:39.732Z,0.00
2023-02-23T05:53:25.748Z,0.00
2023-02-23T05:54:11.720Z,0.00
2023-02-23T05:54:57.772Z,0.00
2023-02-23T05:55:43.705Z,0.00
2023-02-23T05:56:29.768Z,0.00
2023-02-23T05:57:15.732Z,0.00
2023-02-23T05:58:01.663Z,0.00
2023-02-23T05:58:47.795Z,0.00
2023-02-23T05:59:33.778Z,0.00
2023-02-23T06:00:19.845Z,0.00
2023-02-23T06:01:05.789Z,0.00
2023-02-23T06:01:51.761Z,0.00
2023-02-23T06:02:37.845Z,0.00
2023-02-23T06:03:23.893Z,0.00
2023-02-23T06:04:09.873Z,0.00
2023-02-23T06:04:55.851Z,0.00
2023-02-23T06:05:42.372Z,0.00
2023-02-23T06:06:27.816Z,0.00
2023-02-23T06:07:13.820Z,0.00
2023-02-23T06:07:59.822Z,0.00
2023-02-23T06:08:45.844Z,0.00
2023-02-23T06:09:31.849Z,0.00
2023-02-23T06:10:17.748Z,0.00
2023-02-23T06:11:03.847Z,0.00
2023-02-23T06:11:49.831Z,0.00
2023-02-23T06:12:35.850Z,0.00
2023-02-23T06:13:21.914Z,0.00
2023-02-23T06:14:07.851Z,0.00
2023-02-23T06:14:53.868Z,0.00
2023-02-23T06:15:39.975Z,0.00
2023-02-23T06:16:25.930Z,0.00
2023-02-23T06:17:11.819Z,0.00
2023-02-23T06:17:57.862Z,0.00
2023-02-23T06:18:43.819Z,0.00
2023-02-23T06:19:29.958Z,0.00
2023-02-23T06:20:15.809Z,0.00
2023-02-23T06:21:01.887Z,0.00
2023-02-23T06:21:47.830Z,0.00
2023-02-23T06:22:33.873Z,0.00
2023-02-23T06:23:19.943Z,0.00
2023-02-23T06:24:05.877Z,0.00
2023-02-23T06:24:51.924Z,0.00
2023-02-23T06:25:37.926Z,0.00
2023-02-23T06:26:23.864Z,0.00
2023-02-23T06:27:09.961Z,0.00
2023-02-23T06:27:55.902Z,0.00
2023-02-23T06:28:42.520Z,0.00
2023-02-23T06:29:27.936Z,0.00
2023-02-23T06:30:14.021Z,0.00
2023-02-23T06:31:00.073Z,0.00
2023-02-23T06:31:45.947Z,0.00
2023-02-23T06:32:31.844Z,0.00
2023-02-23T06:33:17.849Z,0.36
2023-02-23T06:34:04.023Z,0.00
2023-02-23T06:34:49.919Z,0.36
2023-02-23T06:35:35.916Z,0.00
2023-02-23T06:36:21.982Z,0.00
2023-02-23T06:37:09.249Z,0.36
2023-02-23T06:37:54.016Z,0.00
2023-02-23T06:38:39.999Z,0.85
2023-02-23T06:39:26.040Z,0.85
2023-02-23T06:40:12.069Z,1.71
2023-02-23T06:40:57.962Z,2.08
2023-02-23T06:41:44.068Z,2.08
2023-02-23T06:42:30.078Z,2.57
2023-02-23T06:43:16.061Z,2.08
2023-02-23T06:44:02.035Z,2.08
2023-02-23T06:44:47.986Z,2.57
2023-02-23T06:45:34.118Z,2.57
2023-02-23T06:46:20.200Z,2.08
2023-02-23T06:47:06.132Z,2.08
2023-02-23T06:47:52.206Z,1.71
2023-02-23T06:48:38.021Z,1.71
2023-02-23T06:49:24.089Z,2.57
2023-02-23T06:50:10.074Z,1.71
2023-02-23T06:50:56.071Z,0.85
2023-02-23T06:51:42.757Z,1.22
2023-02-23T06:52:28.024Z,1.71
2023-02-23T06:53:14.043Z,2.94
2023-02-23T06:54:00.169Z,4.77
2023-02-23T06:54:46.086Z,5.99
2023-02-23T06:55:32.093Z,6.48
2023-02-23T06:56:18.076Z,7.70
2023-02-23T06:57:04.132Z,9.91
2023-02-23T06:57:50.147Z,10.39
2023-02-23T06:58:36.134Z,10.77
2023-02-23T06:59:22.237Z,11.62
2023-02-23T07:00:08.321Z,12.11
2023-02-23T07:00:54.114Z,12.97
2023-02-23T07:01:40.130Z,11.62
2023-02-23T07:02:26.121Z,12.11
2023-02-23T07:03:12.092Z,10.39
2023-02-23T07:03:58.091Z,10.39
2023-02-23T07:04:44.115Z,9.54
2023-02-23T07:05:30.164Z,9.54
2023-02-23T07:06:16.120Z,9.05
2023-02-23T07:07:02.176Z,10.77
2023-02-23T07:07:48.064Z,12.48
2023-02-23T07:08:34.137Z,12.48
2023-02-23T07:09:20.149Z,13.82
2023-02-23T07:10:06.206Z,13.33
2023-02-23T07:10:52.213Z,14.68
2023-02-23T07:11:38.146Z,14.68
2023-02-23T07:12:24.193Z,16.39
2023-02-23T07:13:10.210Z,17.73
2023-02-23T07:13:56.246Z,18.11
2023-02-23T07:14:42.864Z,18.60
2023-02-23T07:15:28.299Z,19.45
2023-02-23T07:16:14.354Z,19.94
2023-02-23T07:17:00.623Z,18.11
2023-02-23T07:17:46.246Z,17.73
2023-02-23T07:18:32.131Z,16.02
2023-02-23T07:19:18.198Z,15.17
2023-02-23T07:20:04.208Z,14.31
2023-02-23T07:20:50.214Z,13.82
2023-02-23T07:21:36.216Z,13.33
2023-02-23T07:22:22.165Z,13.33
2023-02-23T07:23:08.133Z,13.33
2023-02-23T07:23:54.246Z,14.68
2023-02-23T07:24:40.205Z,14.31
2023-02-23T07:25:26.192Z,13.82
2023-02-23T07:26:12.350Z,13.82
2023-02-23T07:26:58.219Z,13.33
2023-02-23T07:27:44.237Z,13.82
2023-02-23T07:28:30.345Z,13.82
2023-02-23T07:29:16.276Z,16.02
2023-02-23T07:30:02.369Z,16.88
2023-02-23T07:30:48.280Z,16.88
2023-02-23T07:31:34.405Z,16.39
2023-02-23T07:32:20.709Z,16.02
2023-02-23T07:33:06.337Z,15.53
2023-02-23T07:33:52.273Z,14.68
2023-02-23T07:34:38.278Z,14.31
2023-02-23T07:35:24.294Z,14.31
2023-02-23T07:36:10.278Z,15.17
2023-02-23T07:36:56.352Z,16.02
2023-02-23T07:37:42.919Z,16.88
2023-02-23T07:38:28.315Z,18.60
2023-02-23T07:39:14.366Z,19.94
2023-02-23T07:40:01.466Z,21.65
2023-02-23T07:40:46.350Z,22.51
2023-02-23T07:41:32.252Z,23.85
2023-02-23T07:42:18.350Z,25.56
2023-02-23T07:43:04.279Z,26.79
2023-02-23T07:43:50.254Z,28.63
2023-02-23T07:44:36.325Z,31.19
2023-02-23T07:45:22.426Z,33.39
2023-02-23T07:46:08.660Z,35.48
2023-02-23T07:46:54.356Z,37.19
2023-02-23T07:47:40.376Z,39.39
2023-02-23T07:48:26.377Z,40.73
2023-02-23T07:49:12.426Z,39.88
2023-02-23T07:49:58.398Z,39.88
2023-02-23T07:50:44.327Z,39.88
2023-02-23T07:51:30.341Z,39.88
2023-02-23T07:52:16.318Z,40.24
2023-02-23T07:53:02.299Z,40.24
2023-02-23T07:53:48.372Z,38.53
2023-02-23T07:54:34.351Z,36.82
2023-02-23T07:55:20.381Z,34.25
2023-02-23T07:56:06.421Z,31.56
2023-02-23T07:56:52.329Z,30.70
2023-02-23T07:57:38.371Z,30.70
2023-02-23T07:58:24.366Z,30.70
2023-02-23T07:59:10.407Z,30.34
2023-02-23T07:59:56.414Z,28.99
2023-02-23T08:00:43.123Z,30.70
2023-02-23T08:01:28.464Z,32.05
2023-02-23T08:02:14.428Z,34.25
2023-02-23T08:03:00.490Z,35.11
2023-02-23T08:03:46.342Z,35.11
2023-02-23T08:04:32.469Z,34.25
2023-02-23T08:05:18.399Z,32.90
2023-02-23T08:06:04.515Z,32.42
2023-02-23T08:06:50.475Z,31.56
2023-02-23T08:07:36.488Z,32.05
2023-02-23T08:08:22.460Z,33.76
2023-02-23T08:09:08.495Z,36.33
2023-02-23T08:09:54.351Z,37.68
2023-02-23T08:10:40.383Z,39.02
2023-02-23T08:11:26.605Z,38.53
2023-02-23T08:12:12.484Z,35.97
2023-02-23T08:12:58.472Z,35.48
2023-02-23T08:13:44.450Z,35.97
2023-02-23T08:14:30.459Z,36.82
2023-02-23T08:15:16.542Z,39.39
2023-02-23T08:16:02.426Z,41.10
2023-02-23T08:16:50.553Z,41.10
2023-02-23T08:17:34.502Z,41.10
2023-02-23T08:18:20.491Z,41.59
2023-02-23T08:19:06.475Z,42.94
2023-02-23T08:19:52.438Z,43.80
2023-02-23T08:20:38.492Z,44.16
2023-02-23T08:21:24.526Z,43.80
2023-02-23T08:22:10.489Z,44.65
2023-02-23T08:22:56.538Z,44.16
2023-02-23T08:23:43.115Z,45.51
2023-02-23T08:24:28.461Z,46.36
2023-02-23T08:25:14.462Z,48.07
2023-02-23T08:26:00.545Z,49.79
2023-02-23T08:26:46.496Z,51.14
2023-02-23T08:27:32.473Z,52.85
2023-02-23T08:28:18.618Z,55.05
2023-02-23T08:29:04.639Z,55.90
2023-02-23T08:29:50.560Z,56.76
2023-02-23T08:30:37.033Z,56.76
2023-02-23T08:31:23.176Z,58.48
2023-02-23T08:32:08.779Z,61.17
2023-02-23T08:32:54.590Z,64.10
2023-02-23T08:33:40.663Z,67.16
2023-02-23T08:34:26.560Z,71.93
2023-02-23T08:35:12.556Z,75.85
2023-02-23T08:35:58.525Z,78.41
2023-02-23T08:36:45.752Z,80.25
2023-02-23T08:37:30.728Z,84.04
2023-02-23T08:38:16.651Z,88.82
2023-02-23T08:39:02.569Z,91.02
2023-02-23T08:39:48.629Z,96.65
2023-02-23T08:40:34.604Z,106.19
2023-02-23T08:41:20.879Z,114.02
2023-02-23T08:42:06.810Z,121.36
2023-02-23T08:42:52.886Z,127.10
2023-02-23T08:43:38.949Z,134.44
2023-02-23T08:44:24.715Z,125.76
2023-02-23T08:45:10.913Z,118.42
2023-02-23T08:45:56.659Z,112.30
2023-02-23T08:46:43.056Z,112.30
2023-02-23T08:47:28.631Z,115.73
2023-02-23T08:48:14.809Z,120.50
2023-02-23T08:49:00.784Z,127.96
2023-02-23T08:49:46.782Z,136.65
2023-02-23T08:50:32.816Z,146.56
2023-02-23T08:51:19.075Z,156.10
2023-02-23T08:52:04.781Z,162.22
2023-02-23T08:52:50.842Z,163.93
2023-02-23T08:53:36.762Z,170.05
2023-02-23T08:54:22.785Z,171.76
2023-02-23T08:55:08.798Z,165.27
2023-02-23T08:55:54.846Z,161.36
2023-02-23T08:56:41.156Z,163.93
2023-02-23T08:57:26.794Z,172.98
2023-02-23T08:58:12.903Z,181.30
2023-02-23T08:58:58.822Z,176.90
2023-02-23T08:59:44.801Z,172.61
2023-02-23T09:00:30.953Z,167.36
2023-02-23T09:01:17.179Z,164.78
2023-02-23T09:02:02.936Z,159.53
2023-02-23T09:02:48.818Z,163.44
2023-02-23T09:03:36.822Z,166.50
2023-02-23T09:04:20.874Z,172.12
2023-02-23T09:05:06.995Z,182.15
2023-02-23T09:05:52.839Z,171.27
2023-02-23T09:06:38.804Z,168.21
2023-02-23T09:07:24.839Z,175.19
2023-02-23T09:08:11.151Z,161.36
2023-02-23T09:08:56.832Z,145.21
2023-02-23T09:09:43.096Z,142.64
2023-02-23T09:10:28.771Z,147.90
2023-02-23T09:11:14.899Z,176.04
2023-02-23T09:12:01.304Z,160.87
2023-02-23T09:12:46.995Z,147.05
2023-02-23T09:13:32.947Z,149.98
2023-02-23T09:14:18.963Z,174.33
2023-02-23T09:15:05.058Z,193.90
2023-02-23T09:15:51.121Z,231.58
2023-02-23T09:16:37.019Z,229.38
2023-02-23T09:17:23.030Z,235.98
2023-02-23T09:18:08.897Z,242.83
2023-02-23T09:18:54.916Z,238.92
2023-02-23T09:19:41.228Z,238.07
2023-02-23T09:20:26.905Z,246.75
2023-02-23T09:21:13.075Z,238.56
2023-02-23T09:21:58.993Z,234.15
2023-02-23T09:22:44.868Z,227.30
2023-02-23T09:23:30.979Z,221.18
2023-02-23T09:24:16.898Z,208.22
2023-02-23T09:25:02.926Z,202.59
2023-02-23T09:25:48.949Z,176.90
2023-02-23T09:26:35.000Z,162.22
2023-02-23T09:27:20.910Z,156.10
2023-02-23T09:28:06.974Z,149.61
2023-02-23T09:28:52.940Z,133.10
2023-02-23T09:29:38.949Z,126.12
2023-02-23T09:30:25.160Z,133.59
2023-02-23T09:31:11.568Z,144.36
2023-02-23T09:31:57.181Z,178.61
2023-02-23T09:32:43.260Z,218.12
2023-02-23T09:33:29.014Z,181.67
2023-02-23T09:34:14.965Z,152.68
2023-02-23T09:35:00.973Z,171.27
2023-02-23T09:35:46.836Z,117.07
2023-02-23T09:36:32.813Z,116.22
2023-02-23T09:37:18.819Z,118.42
2023-02-23T09:38:05.039Z,122.34
2023-02-23T09:38:51.005Z,121.36
2023-02-23T09:39:38.514Z,117.44
2023-02-23T09:40:22.847Z,112.67
2023-02-23T09:41:08.787Z,107.90
2023-02-23T09:41:54.812Z,110.10
2023-02-23T09:42:41.123Z,118.78
2023-02-23T09:43:26.959Z,122.70
2023-02-23T09:44:13.097Z,122.34
2023-02-23T09:44:58.825Z,117.93
2023-02-23T09:45:44.980Z,111.82
2023-02-23T09:46:30.787Z,107.04
2023-02-23T09:47:16.853Z,104.10
2023-02-23T09:48:02.923Z,106.68
2023-02-23T09:48:48.938Z,113.16
2023-02-23T09:49:35.111Z,121.36
2023-02-23T09:50:21.121Z,136.16
2023-02-23T09:51:07.162Z,142.27
2023-02-23T09:51:53.035Z,142.64
2023-02-23T09:52:39.530Z,147.90
2023-02-23T09:53:25.172Z,193.05
2023-02-23T09:54:11.327Z,289.32
2023-02-23T09:54:57.015Z,547.45
2023-02-23T09:55:43.682Z,460.59
2023-02-23T09:56:28.996Z,550.51
2023-02-23T09:57:15.252Z,529.23
2023-02-23T09:58:01.005Z,485.43
2023-02-23T09:58:47.093Z,470.13
2023-02-23T09:59:33.117Z,501.45
2023-02-23T10:00:19.219Z,485.79
2023-02-23T10:01:05.130Z,485.43
2023-02-23T10:01:51.049Z,236.84
2023-02-23T10:02:37.150Z,222.53
2023-02-23T10:03:23.061Z,539.62